createdAt,value
2023-04-15T00:01:28.185Z,33.02
2023-04-15T00:03:44.388Z,33.00
2023-04-15T00:05:57.498Z,32.96
2023-04-15T00:08:11.139Z,33.03
2023-04-15T00:10:24.249Z,33.02
2023-04-15T00:12:37.111Z,33.06
2023-04-15T00:14:49.950Z,33.16
2023-04-15T00:17:02.702Z,33.14
2023-04-15T00:19:15.275Z,33.15
2023-04-15T00:21:29.990Z,32.96
2023-04-15T00:23:42.889Z,33.04
2023-04-15T00:25:55.596Z,33.04
2023-04-15T00:28:08.651Z,33.24
2023-04-15T00:30:22.131Z,33.01
2023-04-15T00:32:34.787Z,32.99
2023-04-15T00:34:48.614Z,32.83
2023-04-15T00:37:01.729Z,33.03
2023-04-15T00:39:14.570Z,33.14
2023-04-15T00:41:28.484Z,33.22
2023-04-15T00:43:41.454Z,33.61
2023-04-15T00:45:55.317Z,33.57
2023-04-15T00:48:09.199Z,33.35
2023-04-15T00:50:23.616Z,33.40
2023-04-15T00:52:36.543Z,33.32
2023-04-15T00:54:50.006Z,33.35
2023-04-15T00:57:03.251Z,33.33
2023-04-15T00:59:16.452Z,33.18
2023-04-15T01:01:30.657Z,33.20
2023-04-15T01:03:43.534Z,33.35
2023-04-15T01:06:00.851Z,33.51
2023-04-15T01:08:15.365Z,33.45
2023-04-15T01:10:28.595Z,33.25
2023-04-15T01:12:44.630Z,33.10
2023-04-15T01:14:57.615Z,33.19
2023-04-15T01:17:12.769Z,33.32
2023-04-15T01:19:25.974Z,33.26
2023-04-15T01:21:39.802Z,32.98
2023-04-15T01:23:59.879Z,33.24
2023-04-15T01:26:13.401Z,33.26
2023-04-15T01:28:26.597Z,33.21
2023-04-15T01:30:41.804Z,33.01
2023-04-15T01:32:55.149Z,33.04
2023-04-15T01:35:08.122Z,33.01
2023-04-15T01:37:21.108Z,33.12
2023-04-15T01:39:35.790Z,33.53
2023-04-15T01:41:48.850Z,33.68
2023-04-15T01:44:02.406Z,33.91
2023-04-15T01:46:15.610Z,33.94
2023-04-15T01:48:28.484Z,33.90
2023-04-15T01:50:42.416Z,34.09
2023-04-15T01:52:55.107Z,34.28
2023-04-15T01:55:09.346Z,34.15
2023-04-15T01:57:22.027Z,34.25
2023-04-15T01:59:35.030Z,34.39
2023-04-15T02:01:48.294Z,34.37
2023-04-15T02:04:01.527Z,34.32
2023-04-15T02:06:16.995Z,34.26
2023-04-15T02:08:29.905Z,34.41
2023-04-15T02:10:43.057Z,34.45
2023-04-15T02:12:55.868Z,34.67
2023-04-15T02:15:08.934Z,34.87
2023-04-15T02:17:21.733Z,34.62
2023-04-15T02:19:35.043Z,34.40
2023-04-15T02:21:49.437Z,34.37
2023-04-15T02:24:03.597Z,34.22
2023-04-15T02:26:16.771Z,34.32
2023-04-15T02:28:29.434Z,34.35
2023-04-15T02:30:42.664Z,34.63
2023-04-15T02:32:55.505Z,34.60
2023-04-15T02:35:14.817Z,34.70
2023-04-15T02:37:28.950Z,34.66
2023-04-15T02:39:42.081Z,34.91
2023-04-15T02:41:56.442Z,35.16
2023-04-15T02:44:11.553Z,35.28
2023-04-15T02:46:24.681Z,35.43
2023-04-15T02:48:37.914Z,35.48
2023-04-15T02:50:51.963Z,35.71
2023-04-15T02:53:05.481Z,35.77
2023-04-15T02:55:19.222Z,35.94
2023-04-15T02:57:32.170Z,36.16
2023-04-15T02:59:49.595Z,36.42
2023-04-15T03:02:03.240Z,36.72
2023-04-15T03:04:16.496Z,36.92
2023-04-15T03:06:29.475Z,37.22
2023-04-15T03:08:42.894Z,37.64
2023-04-15T03:10:57.649Z,37.65
2023-04-15T03:13:14.282Z,37.79
2023-04-15T03:15:27.486Z,38.05
2023-04-15T03:17:40.409Z,38.04
2023-04-15T03:19:53.836Z,38.25
2023-04-15T03:22:07.958Z,38.20
2023-04-15T03:24:21.179Z,38.07
2023-04-15T03:26:35.293Z,37.94
2023-04-15T03:28:52.325Z,38.00
2023-04-15T03:31:05.168Z,38.04
2023-04-15T03:33:18.368Z,38.19
2023-04-15T03:35:31.387Z,38.28
2023-04-15T03:37:45.231Z,38.60
2023-04-15T03:39:58.379Z,38.69
2023-04-15T03:42:11.175Z,38.75
2023-04-15T03:44:25.915Z,38.81
2023-04-15T03:46:38.554Z,39.06
2023-04-15T03:48:51.327Z,39.00
2023-04-15T03:51:03.777Z,39.24
2023-04-15T03:53:16.455Z,39.34
2023-04-15T03:55:29.196Z,39.51
2023-04-15T03:57:41.866Z,39.61
2023-04-15T03:59:54.406Z,39.61
2023-04-15T04:02:07.169Z,39.79
2023-04-15T04:04:20.436Z,39.92
2023-04-15T04:06:33.140Z,40.21
2023-04-15T04:08:46.762Z,40.23
2023-04-15T04:10:59.572Z,40.54
2023-04-15T04:13:12.583Z,40.52
2023-04-15T04:15:25.542Z,40.76
2023-04-15T04:17:38.298Z,40.90
2023-04-15T04:19:51.262Z,40.85
2023-04-15T04:22:03.780Z,40.91
2023-04-15T04:24:16.613Z,41.09
2023-04-15T04:26:29.284Z,41.21
2023-04-15T04:28:42.307Z,41.35
2023-04-15T04:30:55.237Z,41.39
2023-04-15T04:33:07.807Z,41.58
2023-04-15T04:35:20.900Z,41.65
2023-04-15T04:37:33.473Z,41.87
2023-04-15T04:39:46.422Z,42.07
2023-04-15T04:41:58.878Z,42.08
2023-04-15T04:44:11.428Z,42.16
2023-04-15T04:46:24.956Z,42.28
2023-04-15T04:48:37.695Z,42.30
2023-04-15T04:50:50.623Z,42.31
2023-04-15T04:53:03.247Z,42.37
2023-04-15T04:55:16.818Z,42.50
2023-04-15T04:57:29.357Z,42.71
2023-04-15T04:59:41.989Z,43.10
2023-04-15T05:01:55.415Z,43.05
2023-04-15T05:04:08.785Z,43.22
2023-04-15T05:06:22.172Z,43.18
2023-04-15T05:08:34.988Z,43.28
2023-04-15T05:10:47.970Z,43.48
2023-04-15T05:13:01.039Z,43.57
2023-04-15T05:15:15.385Z,43.68
2023-04-15T05:17:28.614Z,44.02
2023-04-15T05:19:41.368Z,44.28
2023-04-15T05:21:54.410Z,44.60
2023-04-15T05:24:07.478Z,44.71
2023-04-15T05:26:20.741Z,45.07
2023-04-15T05:28:33.592Z,45.08
2023-04-15T05:30:47.131Z,45.24
2023-04-15T05:32:59.803Z,45.49
2023-04-15T05:35:14.298Z,45.57
2023-04-15T05:37:27.308Z,45.83
2023-04-15T05:39:40.506Z,45.92
2023-04-15T05:41:53.444Z,46.12
2023-04-15T05:44:06.195Z,46.24
2023-04-15T05:46:19.289Z,46.29
2023-04-15T05:48:31.988Z,46.40
2023-04-15T05:50:47.104Z,46.44
2023-04-15T05:52:59.643Z,46.38
2023-04-15T05:55:13.590Z,46.53
2023-04-15T05:57:26.420Z,46.73
2023-04-15T05:59:39.964Z,46.79
2023-04-15T06:01:53.301Z,46.84
2023-04-15T06:04:05.984Z,47.03
2023-04-15T06:06:18.727Z,47.05
2023-04-15T06:08:31.521Z,47.09
2023-04-15T06:10:44.283Z,47.23
2023-04-15T06:12:58.708Z,47.54
2023-04-15T06:15:12.932Z,47.72
2023-04-15T06:17:25.714Z,47.76
2023-04-15T06:19:39.138Z,47.97
2023-04-15T06:21:52.154Z,48.11
2023-04-15T06:24:05.303Z,48.38
2023-04-15T06:26:18.604Z,48.56
2023-04-15T06:28:31.314Z,48.63
2023-04-15T06:30:44.005Z,48.94
2023-04-15T06:32:56.800Z,49.33
2023-04-15T06:35:09.965Z,49.50
2023-04-15T06:37:22.886Z,49.72
2023-04-15T06:39:35.473Z,49.79
2023-04-15T06:41:50.730Z,49.91
2023-04-15T06:44:04.616Z,50.10
2023-04-15T06:46:17.597Z,50.38
2023-04-15T06:48:30.505Z,50.64
2023-04-15T06:50:43.384Z,50.86
2023-04-15T06:52:57.143Z,50.97
2023-04-15T06:55:11.290Z,51.41
2023-04-15T06:57:24.186Z,51.42
2023-04-15T06:59:36.769Z,51.98
2023-04-15T07:01:49.704Z,52.55
2023-04-15T07:04:02.588Z,52.48
2023-04-15T07:06:15.421Z,52.53
2023-04-15T07:08:28.303Z,52.78
2023-04-15T07:10:41.267Z,53.08
2023-04-15T07:12:54.425Z,53.28
2023-04-15T07:15:08.143Z,53.02
2023-04-15T07:17:21.025Z,53.09
2023-04-15T07:19:33.886Z,53.08
2023-04-15T07:21:46.624Z,53.02
2023-04-15T07:24:00.739Z,52.63
2023-04-15T07:26:13.665Z,52.90
2023-04-15T07:28:26.379Z,53.22
2023-04-15T07:30:39.250Z,53.14
2023-04-15T07:32:52.439Z,52.97
2023-04-15T07:35:05.265Z,53.10
2023-04-15T07:37:18.827Z,53.11
2023-04-15T07:39:32.095Z,53.02
2023-04-15T07:41:44.658Z,53.13
2023-04-15T07:43:57.571Z,53.21
2023-04-15T07:46:11.136Z,53.18
2023-04-15T07:48:24.374Z,53.23
2023-04-15T07:50:37.185Z,52.86
2023-04-15T07:52:50.407Z,52.99
2023-04-15T07:55:03.182Z,52.98
2023-04-15T07:57:15.889Z,53.17
2023-04-15T07:59:28.784Z,53.42
2023-04-15T08:01:41.642Z,52.96
2023-04-15T08:03:56.565Z,53.41
2023-04-15T08:06:09.649Z,53.14
2023-04-15T08:08:22.511Z,53.28
2023-04-15T08:10:35.469Z,53.37
2023-04-15T08:12:50.257Z,53.43
2023-04-15T08:15:04.111Z,53.15
2023-04-15T08:17:17.308Z,53.72
2023-04-15T08:19:30.321Z,53.86
2023-04-15T08:21:43.795Z,54.02
2023-04-15T08:23:57.713Z,53.84
2023-04-15T08:26:11.109Z,54.09
2023-04-15T08:28:24.487Z,54.23
2023-04-15T08:30:37.501Z,54.39
2023-04-15T08:32:53.017Z,54.21
2023-04-15T08:35:05.787Z,54.41
2023-04-15T08:37:18.351Z,54.29
2023-04-15T08:39:31.420Z,54.42
2023-04-15T08:41:49.460Z,54.32
2023-04-15T08:44:05.371Z,54.66
2023-04-15T08:46:18.554Z,54.68
2023-04-15T08:48:36.268Z,54.80
2023-04-15T08:50:49.467Z,54.73
2023-04-15T08:53:04.882Z,55.05
2023-04-15T08:55:19.440Z,55.07
2023-04-15T08:57:32.879Z,55.43
2023-04-15T08:59:46.480Z,55.63
2023-04-15T09:02:00.747Z,55.97
2023-04-15T09:04:14.826Z,56.06
2023-04-15T09:06:28.578Z,56.14
2023-04-15T09:08:41.569Z,56.60
2023-04-15T09:10:54.659Z,56.48
2023-04-15T09:13:07.446Z,56.55
2023-04-15T09:15:20.638Z,56.73
2023-04-15T09:17:36.405Z,56.71
2023-04-15T09:19:49.418Z,56.90
2023-04-15T09:22:03.124Z,56.90
2023-04-15T09:24:15.810Z,56.96
2023-04-15T09:26:38.633Z,57.30
2023-04-15T09:28:51.993Z,57.31
2023-04-15T09:31:05.213Z,57.19
2023-04-15T09:33:20.560Z,57.44
2023-04-15T09:35:33.525Z,57.76
2023-04-15T09:37:46.415Z,58.12
2023-04-15T09:39:59.874Z,58.25
2023-04-15T09:42:13.250Z,58.52
2023-04-15T09:44:32.635Z,58.99
2023-04-15T09:46:54.145Z,59.09
2023-04-15T09:49:17.166Z,59.27
2023-04-15T09:51:43.341Z,59.32
2023-04-15T09:54:00.637Z,59.73
2023-04-15T09:56:13.989Z,59.68
2023-04-15T09:58:28.437Z,59.89
2023-04-15T10:03:22.109Z,60.05
2023-04-15T10:05:35.959Z,60.11
2023-04-15T10:07:49.389Z,60.16
2023-04-15T10:10:03.238Z,60.12
2023-04-15T10:12:16.919Z,60.26
2023-04-15T10:14:31.903Z,60.50
2023-04-15T10:16:50.082Z,60.56
2023-04-15T10:19:03.883Z,60.61
2023-04-15T10:21:19.547Z,61.04
2023-04-15T10:23:33.476Z,61.09
2023-04-15T10:25:47.147Z,60.99
2023-04-15T10:28:00.953Z,61.32
2023-04-15T10:30:15.932Z,61.39
2023-04-15T10:32:29.041Z,61.65
2023-04-15T10:34:41.809Z,61.60
2023-04-15T10:36:55.004Z,61.68
2023-04-15T10:39:28.193Z,62.17
2023-04-15T10:41:40.801Z,61.99
2023-04-15T10:44:10.551Z,61.94
2023-04-15T10:46:27.488Z,62.11
2023-04-15T10:48:40.008Z,62.00
2023-04-15T10:51:04.865Z,62.05
2023-04-15T10:53:30.029Z,61.97
2023-04-15T10:55:43.831Z,62.29
2023-04-15T10:57:58.170Z,62.29
2023-04-15T11:00:18.319Z,62.24
2023-04-15T11:02:45.183Z,62.39
2023-04-15T11:05:02.999Z,62.39
2023-04-15T11:07:15.758Z,62.55
2023-04-15T11:09:39.275Z,62.62
2023-04-15T11:12:11.946Z,62.75
2023-04-15T11:14:24.471Z,62.68
2023-04-15T11:16:48.680Z,62.73
2023-04-15T11:19:02.808Z,62.90
2023-04-15T11:21:16.041Z,62.91
2023-04-15T11:23:45.275Z,62.98
2023-04-15T11:26:01.391Z,62.92
2023-04-15T11:28:14.778Z,63.11
2023-04-15T11:30:29.947Z,63.47
2023-04-15T11:32:45.298Z,63.35
2023-04-15T11:34:58.019Z,63.45
2023-04-15T11:37:12.855Z,63.44
2023-04-15T11:39:28.604Z,63.35
2023-04-15T11:41:41.837Z,63.43
2023-04-15T11:43:54.833Z,63.53
2023-04-15T11:46:07.879Z,63.53
2023-04-15T11:48:21.315Z,63.92
2023-04-15T11:50:33.802Z,63.73
2023-04-15T11:52:55.462Z,63.91
2023-04-15T11:55:11.634Z,63.88
2023-04-15T11:57:24.558Z,64.00
2023-04-15T11:59:48.117Z,63.82
2023-04-15T12:02:00.760Z,64.06
2023-04-15T12:04:24.243Z,64.27
2023-04-15T12:06:40.540Z,64.36
2023-04-15T12:09:03.846Z,64.04
2023-04-15T12:11:17.236Z,64.12
2023-04-15T12:13:30.970Z,64.05
2023-04-15T12:15:45.971Z,64.08
2023-04-15T12:18:02.025Z,63.91
2023-04-15T12:20:18.048Z,63.99
2023-04-15T12:22:31.156Z,64.12
2023-04-15T12:24:44.941Z,63.99
2023-04-15T12:26:58.877Z,63.85
2023-04-15T12:29:13.629Z,64.02
2023-04-15T12:31:26.721Z,64.14
2023-04-15T12:33:41.870Z,64.13
2023-04-15T12:35:55.122Z,64.27
2023-04-15T12:38:07.982Z,63.96
2023-04-15T12:40:20.684Z,64.11
2023-04-15T12:42:33.420Z,64.25
2023-04-15T12:44:46.155Z,64.06
2023-04-15T12:46:59.212Z,64.21
2023-04-15T12:49:12.124Z,64.27
2023-04-15T12:51:24.899Z,64.36
2023-04-15T12:53:37.364Z,64.28
2023-04-15T12:55:50.757Z,64.62
2023-04-15T12:58:03.401Z,64.64
2023-04-15T13:00:19.244Z,64.73
2023-04-15T13:02:31.893Z,64.70
2023-04-15T13:04:44.514Z,64.85
2023-04-15T13:06:57.590Z,64.94
2023-04-15T13:09:10.579Z,65.11
2023-04-15T13:11:26.401Z,65.04
2023-04-15T13:13:39.344Z,64.97
2023-04-15T13:15:52.736Z,65.17
2023-04-15T13:18:05.280Z,65.33
2023-04-15T13:20:18.762Z,65.36
2023-04-15T13:22:31.964Z,65.43
2023-04-15T13:24:44.459Z,65.66
2023-04-15T13:26:57.271Z,65.69
2023-04-15T13:29:10.335Z,66.03
2023-04-15T13:31:23.360Z,65.99
2023-04-15T13:33:36.090Z,65.99
2023-04-15T13:35:49.205Z,66.14
2023-04-15T13:38:01.986Z,66.24
2023-04-15T13:40:15.760Z,66.30
2023-04-15T13:42:28.599Z,66.53
2023-04-15T13:44:41.490Z,66.36
2023-04-15T13:46:54.073Z,66.69
2023-04-15T13:49:07.082Z,66.57
2023-04-15T13:51:20.135Z,66.61
2023-04-15T13:53:38.735Z,66.71
2023-04-15T13:55:51.918Z,66.69
2023-04-15T13:58:04.572Z,66.86
2023-04-15T14:00:20.681Z,66.88
2023-04-15T14:02:34.045Z,66.88
2023-04-15T14:04:46.763Z,66.76
2023-04-15T14:06:59.674Z,66.92
2023-04-15T14:09:12.984Z,66.95
2023-04-15T14:11:27.408Z,66.94
2023-04-15T14:13:40.215Z,66.80
2023-04-15T14:15:53.717Z,66.96
2023-04-15T14:18:06.634Z,67.03
2023-04-15T14:20:19.377Z,66.73
2023-04-15T14:22:32.066Z,66.86
2023-04-15T14:24:44.446Z,66.73
2023-04-15T14:26:58.059Z,66.85
2023-04-15T14:29:10.586Z,66.92
2023-04-15T14:31:23.894Z,67.07
2023-04-15T14:33:39.742Z,67.10
2023-04-15T14:35:52.690Z,66.94
2023-04-15T14:38:05.494Z,67.07
2023-04-15T14:40:18.156Z,66.80
2023-04-15T14:42:31.065Z,66.84
2023-04-15T14:44:45.304Z,66.77
2023-04-15T14:46:58.074Z,66.65
2023-04-15T14:49:10.676Z,66.57
2023-04-15T14:51:24.084Z,65.96
2023-04-15T14:53:36.921Z,65.10
2023-04-15T14:55:50.296Z,65.05
2023-04-15T14:58:03.551Z,64.69
2023-04-15T15:00:17.785Z,64.17
2023-04-15T15:02:39.155Z,63.73
2023-04-15T15:04:53.280Z,63.35
2023-04-15T15:07:06.070Z,63.00
2023-04-15T15:09:20.800Z,62.87
2023-04-15T15:11:33.716Z,62.51
2023-04-15T15:13:46.494Z,62.51
2023-04-15T15:15:59.219Z,62.53
2023-04-15T15:18:11.952Z,62.29
2023-04-15T15:20:24.896Z,62.39
2023-04-15T15:22:37.881Z,62.38
2023-04-15T15:24:50.507Z,61.81
2023-04-15T15:27:03.163Z,62.09
2023-04-15T15:29:15.722Z,61.57
2023-04-15T15:31:31.383Z,60.99
2023-04-15T15:33:44.335Z,60.81
2023-04-15T15:35:57.576Z,60.58
2023-04-15T15:38:10.982Z,60.48
2023-04-15T15:40:23.773Z,59.62
2023-04-15T15:42:36.868Z,59.22
2023-04-15T15:44:50.479Z,58.84
2023-04-15T15:47:03.416Z,58.42
2023-04-15T15:49:16.375Z,58.60
2023-04-15T15:51:29.464Z,58.99
2023-04-15T15:53:43.019Z,59.31
2023-04-15T15:55:56.281Z,59.90
2023-04-15T15:58:09.149Z,60.16
2023-04-15T16:00:24.359Z,60.76
2023-04-15T16:04:53.720Z,60.54
2023-04-15T16:07:07.265Z,60.97
2023-04-15T16:09:19.606Z,61.05
2023-04-15T16:11:32.283Z,61.12
2023-04-15T16:13:45.310Z,60.56
2023-04-15T16:15:59.911Z,60.60
2023-04-15T16:18:13.015Z,60.64
2023-04-15T16:20:26.207Z,60.47
2023-04-15T16:22:38.889Z,60.24
2023-04-15T16:24:51.541Z,60.09
2023-04-15T16:27:04.187Z,60.16
2023-04-15T16:29:17.166Z,60.11
2023-04-15T16:31:29.782Z,60.31
2023-04-15T16:33:42.287Z,60.47
2023-04-15T16:35:55.014Z,60.23
2023-04-15T16:38:08.263Z,60.22
2023-04-15T16:40:22.216Z,60.22
2023-04-15T16:42:35.140Z,59.85
2023-04-15T16:44:48.249Z,59.80
2023-04-15T16:47:01.984Z,60.00
2023-04-15T16:49:14.395Z,59.61
2023-04-15T16:51:27.008Z,59.43
2023-04-15T16:53:39.652Z,59.29
2023-04-15T16:55:52.167Z,59.07
2023-04-15T16:58:05.955Z,59.10
2023-04-15T17:00:21.342Z,58.89
2023-04-15T17:02:34.197Z,59.00
2023-04-15T17:04:46.927Z,59.19
2023-04-15T17:06:59.916Z,59.45
2023-04-15T17:09:12.889Z,59.41
2023-04-15T17:11:25.336Z,59.65
2023-04-15T17:13:37.802Z,59.29
2023-04-15T17:15:50.280Z,59.33
2023-04-15T17:18:05.707Z,59.26
2023-04-15T17:20:19.248Z,59.32
2023-04-15T17:22:31.867Z,58.89
2023-04-15T17:24:44.437Z,58.46
2023-04-15T17:27:03.988Z,58.33
2023-04-15T17:29:16.593Z,58.70
2023-04-15T17:31:30.670Z,58.75
2023-04-15T17:34:00.856Z,58.43
2023-04-15T17:36:17.198Z,58.75
2023-04-15T17:38:29.856Z,58.63
2023-04-15T17:40:42.815Z,58.57
2023-04-15T17:42:57.693Z,58.48
2023-04-15T17:45:12.304Z,57.89
2023-04-15T17:47:25.995Z,58.00
2023-04-15T17:49:38.854Z,58.03
2023-04-15T17:51:51.693Z,57.78
2023-04-15T17:54:05.238Z,57.75
2023-04-15T17:56:18.213Z,58.00
2023-04-15T17:58:31.566Z,58.25
2023-04-15T18:00:44.935Z,58.09
2023-04-15T18:02:58.506Z,57.89
2023-04-15T18:05:12.781Z,57.54
2023-04-15T18:07:26.043Z,57.07
2023-04-15T18:09:39.079Z,57.05
2023-04-15T18:11:52.091Z,56.86
2023-04-15T18:14:06.173Z,56.68
2023-04-15T18:16:19.582Z,56.38
2023-04-15T18:18:32.796Z,56.51
2023-04-15T18:20:45.681Z,56.19
2023-04-15T18:22:58.776Z,55.91
2023-04-15T18:25:13.200Z,55.46
2023-04-15T18:27:25.876Z,55.06
2023-04-15T18:29:39.012Z,54.45
2023-04-15T18:31:51.876Z,54.67
2023-04-15T18:34:06.377Z,54.53
2023-04-15T18:36:19.350Z,54.74
2023-04-15T18:38:32.271Z,54.44
2023-04-15T18:40:45.059Z,54.00
2023-04-15T18:42:58.140Z,54.34
2023-04-15T18:45:11.706Z,54.40
2023-04-15T18:47:26.857Z,54.46
2023-04-15T18:49:39.973Z,54.56
2023-04-15T18:51:52.716Z,54.52
2023-04-15T18:54:05.705Z,54.16
2023-04-15T18:56:18.164Z,53.91
2023-04-15T18:59:25.277Z,53.57
2023-04-15T19:01:04.107Z,53.06
2023-04-15T19:03:16.810Z,53.05
2023-04-15T19:05:29.886Z,53.00
2023-04-15T19:07:42.750Z,52.86
2023-04-15T19:09:56.300Z,52.94
2023-04-15T19:12:08.938Z,53.10
2023-04-15T19:14:23.127Z,53.02
2023-04-15T19:16:36.034Z,53.12
2023-04-15T19:18:48.518Z,53.08
2023-04-15T19:21:02.387Z,53.14
2023-04-15T19:23:16.081Z,52.97
2023-04-15T19:25:29.248Z,52.84
2023-04-15T19:27:41.909Z,52.91
2023-04-15T19:29:54.326Z,52.45
2023-04-15T19:32:07.518Z,52.67
2023-04-15T19:34:21.183Z,52.55
2023-04-15T19:36:40.234Z,52.73
2023-04-15T19:38:53.155Z,52.97
2023-04-15T19:41:05.625Z,52.94
2023-04-15T19:43:18.159Z,53.13
2023-04-15T19:45:31.222Z,53.18
2023-04-15T19:47:43.902Z,53.01
2023-04-15T19:49:57.060Z,52.96
2023-04-15T19:52:09.482Z,52.79
2023-04-15T19:54:23.920Z,52.70
2023-04-15T19:56:36.780Z,52.65
2023-04-15T19:58:53.786Z,52.37
2023-04-15T20:01:06.835Z,52.43
2023-04-15T20:03:20.257Z,52.19
2023-04-15T20:05:32.852Z,52.11
2023-04-15T20:07:48.692Z,52.18
2023-04-15T20:10:01.537Z,52.31
2023-04-15T20:12:50.191Z,52.08
2023-04-15T20:14:46.541Z,51.65
2023-04-15T20:16:59.878Z,51.58
2023-04-15T20:19:14.180Z,52.03
2023-04-15T20:21:26.819Z,52.08
2023-04-15T20:23:39.373Z,51.93
2023-04-15T20:25:52.400Z,51.96
2023-04-15T20:28:05.633Z,51.71
2023-04-15T20:30:18.668Z,51.89
2023-04-15T20:32:33.003Z,51.75
2023-04-15T20:34:45.977Z,51.80
2023-04-15T20:36:58.426Z,51.45
2023-04-15T20:39:10.879Z,51.34
2023-04-15T20:41:24.413Z,51.40
2023-04-15T20:43:37.185Z,51.37
2023-04-15T20:45:49.758Z,51.16
2023-04-15T20:48:03.119Z,51.11
2023-04-15T20:50:17.010Z,50.41
2023-04-15T20:52:29.432Z,50.60
2023-04-15T20:54:42.296Z,50.53
2023-04-15T20:56:55.044Z,50.49
2023-04-15T20:59:07.787Z,50.38
2023-04-15T21:01:20.890Z,50.20
2023-04-15T21:03:34.150Z,50.30
2023-04-15T21:05:46.536Z,50.43
2023-04-15T21:07:59.176Z,50.47
2023-04-15T21:10:12.694Z,50.09
2023-04-15T21:12:25.509Z,49.99
2023-04-15T21:14:38.810Z,49.93
2023-04-15T21:16:51.750Z,49.69
2023-04-15T21:19:05.148Z,49.35
2023-04-15T21:21:17.792Z,49.43
2023-04-15T21:23:31.476Z,49.44
2023-04-15T21:25:43.913Z,49.50
2023-04-15T21:27:56.487Z,49.55
2023-04-15T21:30:09.967Z,49.55
2023-04-15T21:32:22.400Z,49.45
2023-04-15T21:34:35.167Z,49.38
2023-04-15T21:36:47.773Z,49.07
2023-04-15T21:39:00.329Z,48.72
2023-04-15T21:41:13.203Z,48.67
2023-04-15T21:43:26.793Z,48.57
2023-04-15T21:45:40.695Z,48.30
2023-04-15T21:48:00.694Z,48.39
2023-04-15T21:50:21.658Z,48.57
2023-04-15T21:52:34.669Z,48.87
2023-04-15T21:54:47.386Z,48.93
2023-04-15T21:57:00.414Z,48.95
2023-04-15T21:59:12.910Z,49.25
2023-04-15T22:01:25.442Z,49.11
2023-04-15T22:03:38.913Z,48.70
2023-04-15T22:05:51.874Z,48.48
2023-04-15T22:08:05.940Z,48.46
2023-04-15T22:10:19.260Z,48.18
2023-04-15T22:12:32.386Z,47.84
2023-04-15T22:14:44.835Z,47.64
2023-04-15T22:16:57.769Z,47.62
2023-04-15T22:19:10.617Z,47.69
2023-04-15T22:21:23.786Z,47.77
2023-04-15T22:23:36.120Z,47.96
2023-04-15T22:25:48.618Z,47.92
2023-04-15T22:28:01.146Z,48.11
2023-04-15T22:30:15.145Z,47.83
2023-04-15T22:32:27.844Z,47.41
2023-04-15T22:34:40.621Z,47.13
2023-04-15T22:36:53.635Z,47.20
2023-04-15T22:39:06.437Z,47.36
2023-04-15T22:41:19.433Z,47.49
2023-04-15T22:43:32.131Z,46.99
2023-04-15T22:45:44.735Z,46.59
2023-04-15T22:47:57.121Z,46.50
2023-04-15T22:50:12.407Z,46.57
2023-04-15T22:52:30.408Z,46.90
2023-04-15T22:54:43.584Z,46.99
2023-04-15T22:56:56.074Z,47.01
2023-04-15T22:59:08.945Z,47.32
2023-04-15T23:01:22.392Z,47.06
2023-04-15T23:03:39.070Z,47.06
2023-04-15T23:06:07.600Z,47.32
2023-04-15T23:08:20.475Z,46.91
2023-04-15T23:10:33.618Z,46.72
2023-04-15T23:12:46.065Z,46.69
2023-04-15T23:14:58.497Z,46.43
2023-04-15T23:17:11.418Z,46.36
2023-04-15T23:19:24.071Z,46.54
2023-04-15T23:21:36.937Z,46.71
2023-04-15T23:23:50.186Z,47.02
2023-04-15T23:26:05.073Z,47.37
2023-04-15T23:28:17.495Z,47.20
2023-04-15T23:30:30.871Z,46.96
2023-04-15T23:32:43.320Z,46.93
2023-04-15T23:34:56.136Z,46.87
2023-04-15T23:37:09.923Z,46.67
2023-04-15T23:39:22.378Z,46.51
2023-04-15T23:41:34.916Z,46.14
2023-04-15T23:43:47.315Z,46.08
2023-04-15T23:45:59.998Z,46.06
2023-04-15T23:48:13.034Z,46.19
2023-04-15T23:50:26.670Z,46.49
2023-04-15T23:52:39.472Z,46.53
2023-04-15T23:54:52.572Z,46.54
2023-04-15T23:57:08.374Z,46.71
2023-04-15T23:59:20.989Z,46.66
